sensor_id;sensor_type;location;lat;lon;timestamp;P1;durP1;ratioP1;P2;durP2;ratioP2
11344;SDS011;5727;42.600;23.028;2023-04-24T00:01:01;6.70;;;6.00;;
11344;SDS011;5727;42.600;23.028;2023-04-24T00:03:28;6.63;;;5.87;;
11344;SDS011;5727;42.600;23.028;2023-04-24T00:05:55;6.30;;;5.70;;
11344;SDS011;5727;42.600;23.028;2023-04-24T00:08:22;6.07;;;5.47;;
11344;SDS011;5727;42.600;23.028;2023-04-24T00:10:48;7.67;;;5.27;;
11344;SDS011;5727;42.600;23.028;2023-04-24T00:13:17;6.90;;;5.60;;
11344;SDS011;5727;42.600;23.028;2023-04-24T00:15:45;8.63;;;6.10;;
11344;SDS011;5727;42.600;23.028;2023-04-24T00:18:12;6.03;;;5.50;;
11344;SDS011;5727;42.600;23.028;2023-04-24T00:20:39;5.83;;;5.43;;
11344;SDS011;5727;42.600;23.028;2023-04-24T00:23:05;8.63;;;5.70;;
11344;SDS011;5727;42.600;23.028;2023-04-24T00:25:32;7.07;;;5.33;;
11344;SDS011;5727;42.600;23.028;2023-04-24T00:27:59;7.77;;;5.70;;
11344;SDS011;5727;42.600;23.028;2023-04-24T00:30:26;5.67;;;5.13;;
11344;SDS011;5727;42.600;23.028;2023-04-24T00:32:54;5.67;;;5.07;;
11344;SDS011;5727;42.600;23.028;2023-04-24T00:35:21;5.93;;;4.93;;
11344;SDS011;5727;42.600;23.028;2023-04-24T00:37:48;7.90;;;5.77;;
11344;SDS011;5727;42.600;23.028;2023-04-24T00:40:16;7.20;;;5.53;;
11344;SDS011;5727;42.600;23.028;2023-04-24T00:42:43;6.10;;;5.60;;
11344;SDS011;5727;42.600;23.028;2023-04-24T00:45:10;8.37;;;5.53;;
11344;SDS011;5727;42.600;23.028;2023-04-24T00:47:37;6.07;;;5.20;;
11344;SDS011;5727;42.600;23.028;2023-04-24T00:50:06;5.90;;;5.13;;
11344;SDS011;5727;42.600;23.028;2023-04-24T00:52:34;7.13;;;5.67;;
11344;SDS011;5727;42.600;23.028;2023-04-24T00:55:01;6.33;;;5.67;;
11344;SDS011;5727;42.600;23.028;2023-04-24T00:57:28;7.10;;;5.83;;
11344;SDS011;5727;42.600;23.028;2023-04-24T00:59:55;6.23;;;5.00;;
11344;SDS011;5727;42.600;23.028;2023-04-24T01:02:21;7.70;;;5.40;;
11344;SDS011;5727;42.600;23.028;2023-04-24T01:04:49;6.30;;;5.10;;
11344;SDS011;5727;42.600;23.028;2023-04-24T01:07:18;11.33;;;5.40;;
11344;SDS011;5727;42.600;23.028;2023-04-24T01:09:46;7.67;;;5.10;;
11344;SDS011;5727;42.600;23.028;2023-04-24T01:12:16;5.73;;;5.13;;
11344;SDS011;5727;42.600;23.028;2023-04-24T01:14:43;5.90;;;5.20;;
11344;SDS011;5727;42.600;23.028;2023-04-24T01:17:10;8.07;;;4.50;;
11344;SDS011;5727;42.600;23.028;2023-04-24T01:19:37;6.30;;;5.30;;
11344;SDS011;5727;42.600;23.028;2023-04-24T01:22:09;8.47;;;5.13;;
11344;SDS011;5727;42.600;23.028;2023-04-24T01:24:37;5.13;;;4.67;;
11344;SDS011;5727;42.600;23.028;2023-04-24T01:27:04;5.90;;;5.30;;
11344;SDS011;5727;42.600;23.028;2023-04-24T01:29:31;5.97;;;5.47;;
11344;SDS011;5727;42.600;23.028;2023-04-24T01:31:58;6.97;;;5.77;;
11344;SDS011;5727;42.600;23.028;2023-04-24T01:34:25;7.23;;;5.93;;
11344;SDS011;5727;42.600;23.028;2023-04-24T01:36:52;10.23;;;5.87;;
11344;SDS011;5727;42.600;23.028;2023-04-24T01:39:20;9.57;;;5.93;;
11344;SDS011;5727;42.600;23.028;2023-04-24T01:41:48;6.87;;;6.10;;
11344;SDS011;5727;42.600;23.028;2023-04-24T01:44:15;6.57;;;5.93;;
11344;SDS011;5727;42.600;23.028;2023-04-24T01:46:42;6.33;;;5.73;;
11344;SDS011;5727;42.600;23.028;2023-04-24T01:49:09;6.83;;;5.50;;
11344;SDS011;5727;42.600;23.028;2023-04-24T01:51:36;7.37;;;5.53;;
11344;SDS011;5727;42.600;23.028;2023-04-24T01:54:03;6.70;;;6.03;;
11344;SDS011;5727;42.600;23.028;2023-04-24T01:56:32;6.63;;;5.83;;
11344;SDS011;5727;42.600;23.028;2023-04-24T01:59:00;7.43;;;6.33;;
11344;SDS011;5727;42.600;23.028;2023-04-24T02:01:33;6.80;;;6.10;;
11344;SDS011;5727;42.600;23.028;2023-04-24T02:04:01;7.93;;;6.43;;
11344;SDS011;5727;42.600;23.028;2023-04-24T02:06:28;8.60;;;7.00;;
11344;SDS011;5727;42.600;23.028;2023-04-24T02:08:56;9.33;;;6.23;;
11344;SDS011;5727;42.600;23.028;2023-04-24T02:11:23;9.90;;;6.67;;
11344;SDS011;5727;42.600;23.028;2023-04-24T02:13:51;9.53;;;6.53;;
11344;SDS011;5727;42.600;23.028;2023-04-24T02:16:18;8.40;;;6.20;;
11344;SDS011;5727;42.600;23.028;2023-04-24T02:18:45;8.20;;;6.47;;
11344;SDS011;5727;42.600;23.028;2023-04-24T02:21:12;11.03;;;7.30;;
11344;SDS011;5727;42.600;23.028;2023-04-24T02:23:38;10.47;;;6.60;;
11344;SDS011;5727;42.600;23.028;2023-04-24T02:26:05;8.37;;;6.13;;
11344;SDS011;5727;42.600;23.028;2023-04-24T02:28:32;7.03;;;6.43;;
11344;SDS011;5727;42.600;23.028;2023-04-24T02:31:00;7.33;;;6.60;;
11344;SDS011;5727;42.600;23.028;2023-04-24T02:33:27;9.23;;;6.40;;
11344;SDS011;5727;42.600;23.028;2023-04-24T02:35:54;8.13;;;6.63;;
11344;SDS011;5727;42.600;23.028;2023-04-24T02:38:20;7.37;;;6.67;;
11344;SDS011;5727;42.600;23.028;2023-04-24T02:40:47;7.83;;;6.63;;
11344;SDS011;5727;42.600;23.028;2023-04-24T02:43:14;7.47;;;6.47;;
11344;SDS011;5727;42.600;23.028;2023-04-24T02:45:40;7.53;;;6.63;;
11344;SDS011;5727;42.600;23.028;2023-04-24T02:48:08;8.90;;;6.30;;
11344;SDS011;5727;42.600;23.028;2023-04-24T02:50:35;7.03;;;6.33;;
11344;SDS011;5727;42.600;23.028;2023-04-24T02:53:02;10.03;;;6.80;;
11344;SDS011;5727;42.600;23.028;2023-04-24T02:55:29;9.00;;;6.87;;
11344;SDS011;5727;42.600;23.028;2023-04-24T02:57:55;7.43;;;6.13;;
11344;SDS011;5727;42.600;23.028;2023-04-24T03:00:24;10.50;;;7.13;;
11344;SDS011;5727;42.600;23.028;2023-04-24T03:02:50;8.33;;;7.40;;
11344;SDS011;5727;42.600;23.028;2023-04-24T03:05:19;10.23;;;7.20;;
11344;SDS011;5727;42.600;23.028;2023-04-24T03:07:46;9.63;;;7.57;;
11344;SDS011;5727;42.600;23.028;2023-04-24T03:10:13;12.23;;;7.90;;
11344;SDS011;5727;42.600;23.028;2023-04-24T03:12:39;9.73;;;7.27;;
11344;SDS011;5727;42.600;23.028;2023-04-24T03:15:07;9.50;;;7.63;;
11344;SDS011;5727;42.600;23.028;2023-04-24T03:17:34;12.23;;;7.37;;
11344;SDS011;5727;42.600;23.028;2023-04-24T03:20:02;10.30;;;8.00;;
11344;SDS011;5727;42.600;23.028;2023-04-24T03:22:31;9.77;;;7.30;;
11344;SDS011;5727;42.600;23.028;2023-04-24T03:24:58;10.83;;;8.07;;
11344;SDS011;5727;42.600;23.028;2023-04-24T03:27:25;10.27;;;8.07;;
11344;SDS011;5727;42.600;23.028;2023-04-24T03:29:52;12.53;;;8.33;;
11344;SDS011;5727;42.600;23.028;2023-04-24T03:32:20;10.90;;;9.00;;
11344;SDS011;5727;42.600;23.028;2023-04-24T03:34:47;10.30;;;8.47;;
11344;SDS011;5727;42.600;23.028;2023-04-24T03:37:14;11.77;;;9.07;;
11344;SDS011;5727;42.600;23.028;2023-04-24T03:39:42;14.60;;;11.17;;
11344;SDS011;5727;42.600;23.028;2023-04-24T03:42:09;15.90;;;11.23;;
11344;SDS011;5727;42.600;23.028;2023-04-24T03:44:36;17.10;;;11.57;;
11344;SDS011;5727;42.600;23.028;2023-04-24T03:47:03;17.90;;;12.53;;
11344;SDS011;5727;42.600;23.028;2023-04-24T03:49:29;13.97;;;9.67;;
11344;SDS011;5727;42.600;23.028;2023-04-24T03:51:57;12.60;;;8.97;;
11344;SDS011;5727;42.600;23.028;2023-04-24T03:54:24;13.57;;;9.27;;
11344;SDS011;5727;42.600;23.028;2023-04-24T03:56:52;11.43;;;9.07;;
11344;SDS011;5727;42.600;23.028;2023-04-24T03:59:19;16.83;;;10.57;;
11344;SDS011;5727;42.600;23.028;2023-04-24T04:01:45;16.23;;;10.07;;
11344;SDS011;5727;42.600;23.028;2023-04-24T04:04:12;12.33;;;9.63;;
11344;SDS011;5727;42.600;23.028;2023-04-24T04:06:39;15.23;;;9.40;;
11344;SDS011;5727;42.600;23.028;2023-04-24T04:09:06;9.73;;;8.73;;
11344;SDS011;5727;42.600;23.028;2023-04-24T04:11:33;12.60;;;9.37;;
11344;SDS011;5727;42.600;23.028;2023-04-24T04:14:01;13.70;;;9.80;;
11344;SDS011;5727;42.600;23.028;2023-04-24T04:16:30;13.47;;;9.70;;
11344;SDS011;5727;42.600;23.028;2023-04-24T04:18:57;22.97;;;12.47;;
11344;SDS011;5727;42.600;23.028;2023-04-24T04:21:24;10.87;;;8.90;;
11344;SDS011;5727;42.600;23.028;2023-04-24T04:23:51;11.67;;;8.47;;
11344;SDS011;5727;42.600;23.028;2023-04-24T04:26:18;12.97;;;8.70;;
11344;SDS011;5727;42.600;23.028;2023-04-24T04:28:46;10.97;;;8.37;;
11344;SDS011;5727;42.600;23.028;2023-04-24T04:31:15;12.07;;;8.57;;
11344;SDS011;5727;42.600;23.028;2023-04-24T04:33:42;10.87;;;8.97;;
11344;SDS011;5727;42.600;23.028;2023-04-24T04:36:08;13.97;;;9.50;;
11344;SDS011;5727;42.600;23.028;2023-04-24T04:38:35;14.17;;;10.10;;
11344;SDS011;5727;42.600;23.028;2023-04-24T04:41:02;11.27;;;8.67;;
11344;SDS011;5727;42.600;23.028;2023-04-24T04:43:29;11.10;;;8.70;;
11344;SDS011;5727;42.600;23.028;2023-04-24T04:45:56;13.57;;;8.83;;
11344;SDS011;5727;42.600;23.028;2023-04-24T04:48:27;11.60;;;8.80;;
11344;SDS011;5727;42.600;23.028;2023-04-24T04:50:56;11.53;;;8.70;;
11344;SDS011;5727;42.600;23.028;2023-04-24T04:53:23;12.67;;;9.67;;
11344;SDS011;5727;42.600;23.028;2023-04-24T04:55:51;17.10;;;10.50;;
11344;SDS011;5727;42.600;23.028;2023-04-24T04:58:17;17.70;;;11.20;;
11344;SDS011;5727;42.600;23.028;2023-04-24T05:00:44;15.23;;;11.10;;
11344;SDS011;5727;42.600;23.028;2023-04-24T05:03:11;12.43;;;8.60;;
11344;SDS011;5727;42.600;23.028;2023-04-24T05:05:39;15.27;;;10.57;;
11344;SDS011;5727;42.600;23.028;2023-04-24T05:08:06;13.97;;;10.43;;
11344;SDS011;5727;42.600;23.028;2023-04-24T05:10:33;23.80;;;12.40;;
11344;SDS011;5727;42.600;23.028;2023-04-24T05:13:01;20.13;;;13.10;;
11344;SDS011;5727;42.600;23.028;2023-04-24T05:15:28;17.40;;;13.13;;
11344;SDS011;5727;42.600;23.028;2023-04-24T05:17:55;20.67;;;12.40;;
11344;SDS011;5727;42.600;23.028;2023-04-24T05:20:22;18.07;;;11.93;;
11344;SDS011;5727;42.600;23.028;2023-04-24T05:22:50;15.67;;;9.53;;
11344;SDS011;5727;42.600;23.028;2023-04-24T05:25:17;11.03;;;8.57;;
11344;SDS011;5727;42.600;23.028;2023-04-24T05:27:44;13.27;;;7.53;;
11344;SDS011;5727;42.600;23.028;2023-04-24T05:30:11;12.03;;;7.37;;
11344;SDS011;5727;42.600;23.028;2023-04-24T05:32:38;11.10;;;7.10;;
11344;SDS011;5727;42.600;23.028;2023-04-24T05:35:05;10.70;;;6.80;;
11344;SDS011;5727;42.600;23.028;2023-04-24T05:37:32;9.63;;;6.23;;
11344;SDS011;5727;42.600;23.028;2023-04-24T05:40:01;9.80;;;6.67;;
11344;SDS011;5727;42.600;23.028;2023-04-24T05:42:30;11.40;;;6.67;;
11344;SDS011;5727;42.600;23.028;2023-04-24T05:44:56;8.47;;;6.47;;
11344;SDS011;5727;42.600;23.028;2023-04-24T05:47:23;9.87;;;6.70;;
11344;SDS011;5727;42.600;23.028;2023-04-24T05:49:51;10.97;;;6.17;;
11344;SDS011;5727;42.600;23.028;2023-04-24T05:52:18;9.20;;;6.17;;
11344;SDS011;5727;42.600;23.028;2023-04-24T05:54:45;8.90;;;6.33;;
11344;SDS011;5727;42.600;23.028;2023-04-24T05:57:13;7.27;;;5.47;;
11344;SDS011;5727;42.600;23.028;2023-04-24T05:59:40;7.90;;;6.40;;
11344;SDS011;5727;42.600;23.028;2023-04-24T06:02:07;6.37;;;5.73;;
11344;SDS011;5727;42.600;23.028;2023-04-24T06:04:34;9.83;;;6.80;;
11344;SDS011;5727;42.600;23.028;2023-04-24T06:07:00;10.03;;;5.83;;
11344;SDS011;5727;42.600;23.028;2023-04-24T06:09:28;7.80;;;6.27;;
11344;SDS011;5727;42.600;23.028;2023-04-24T06:11:54;7.90;;;5.57;;
11344;SDS011;5727;42.600;23.028;2023-04-24T06:14:23;7.23;;;5.17;;
11344;SDS011;5727;42.600;23.028;2023-04-24T06:16:49;6.60;;;5.57;;
11344;SDS011;5727;42.600;23.028;2023-04-24T06:19:16;6.30;;;5.20;;
11344;SDS011;5727;42.600;23.028;2023-04-24T06:21:43;7.37;;;5.93;;
11344;SDS011;5727;42.600;23.028;2023-04-24T06:24:10;5.67;;;4.87;;
11344;SDS011;5727;42.600;23.028;2023-04-24T06:26:37;9.80;;;7.90;;
11344;SDS011;5727;42.600;23.028;2023-04-24T06:29:04;6.83;;;5.50;;
11344;SDS011;5727;42.600;23.028;2023-04-24T06:31:33;6.07;;;5.40;;
11344;SDS011;5727;42.600;23.028;2023-04-24T06:34:02;5.27;;;4.77;;
11344;SDS011;5727;42.600;23.028;2023-04-24T06:36:28;6.10;;;5.37;;
11344;SDS011;5727;42.600;23.028;2023-04-24T06:38:56;5.27;;;4.77;;
11344;SDS011;5727;42.600;23.028;2023-04-24T06:41:23;5.63;;;5.13;;
11344;SDS011;5727;42.600;23.028;2023-04-24T06:43:50;6.07;;;5.10;;
11344;SDS011;5727;42.600;23.028;2023-04-24T06:46:16;5.37;;;4.90;;
11344;SDS011;5727;42.600;23.028;2023-04-24T06:48:44;5.77;;;5.10;;
11344;SDS011;5727;42.600;23.028;2023-04-24T06:51:11;5.30;;;4.80;;
11344;SDS011;5727;42.600;23.028;2023-04-24T06:53:38;7.20;;;5.20;;
11344;SDS011;5727;42.600;23.028;2023-04-24T06:56:05;6.63;;;5.23;;
11344;SDS011;5727;42.600;23.028;2023-04-24T06:58:31;5.97;;;4.60;;
11344;SDS011;5727;42.600;23.028;2023-04-24T07:00:58;6.27;;;5.20;;
11344;SDS011;5727;42.600;23.028;2023-04-24T07:03:25;5.90;;;5.40;;
11344;SDS011;5727;42.600;23.028;2023-04-24T07:05:53;6.23;;;5.53;;
11344;SDS011;5727;42.600;23.028;2023-04-24T07:08:21;6.73;;;5.33;;
11344;SDS011;5727;42.600;23.028;2023-04-24T07:10:48;6.80;;;4.97;;
11344;SDS011;5727;42.600;23.028;2023-04-24T07:13:15;7.70;;;5.47;;
11344;SDS011;5727;42.600;23.028;2023-04-24T07:15:42;5.60;;;5.00;;
11344;SDS011;5727;42.600;23.028;2023-04-24T07:18:09;5.90;;;5.30;;
11344;SDS011;5727;42.600;23.028;2023-04-24T07:20:36;6.57;;;5.73;;
11344;SDS011;5727;42.600;23.028;2023-04-24T07:23:04;9.30;;;7.03;;
11344;SDS011;5727;42.600;23.028;2023-04-24T07:25:31;9.00;;;5.60;;
11344;SDS011;5727;42.600;23.028;2023-04-24T07:27:57;7.30;;;5.20;;
11344;SDS011;5727;42.600;23.028;2023-04-24T07:30:24;10.00;;;5.60;;
11344;SDS011;5727;42.600;23.028;2023-04-24T07:32:53;5.97;;;5.43;;
11344;SDS011;5727;42.600;23.028;2023-04-24T07:35:20;6.27;;;5.17;;
11344;SDS011;5727;42.600;23.028;2023-04-24T07:37:47;6.77;;;4.87;;
11344;SDS011;5727;42.600;23.028;2023-04-24T07:40:15;6.90;;;5.10;;
11344;SDS011;5727;42.600;23.028;2023-04-24T07:43:00;6.33;;;4.93;;
11344;SDS011;5727;42.600;23.028;2023-04-24T07:45:27;5.83;;;5.33;;
11344;SDS011;5727;42.600;23.028;2023-04-24T07:47:54;7.27;;;4.90;;
11344;SDS011;5727;42.600;23.028;2023-04-24T07:50:21;6.97;;;5.10;;
11344;SDS011;5727;42.600;23.028;2023-04-24T07:52:48;6.10;;;4.97;;
11344;SDS011;5727;42.600;23.028;2023-04-24T07:55:17;5.47;;;4.53;;
11344;SDS011;5727;42.600;23.028;2023-04-24T07:57:43;6.57;;;4.80;;
11344;SDS011;5727;42.600;23.028;2023-04-24T08:00:10;8.07;;;4.97;;
11344;SDS011;5727;42.600;23.028;2023-04-24T08:02:38;5.07;;;4.57;;
11344;SDS011;5727;42.600;23.028;2023-04-24T08:05:05;5.87;;;4.53;;
11344;SDS011;5727;42.600;23.028;2023-04-24T08:07:32;5.80;;;5.17;;
11344;SDS011;5727;42.600;23.028;2023-04-24T08:10:00;7.53;;;4.30;;
11344;SDS011;5727;42.600;23.028;2023-04-24T08:12:29;6.73;;;4.67;;
11344;SDS011;5727;42.600;23.028;2023-04-24T08:14:55;4.70;;;4.30;;
11344;SDS011;5727;42.600;23.028;2023-04-24T08:17:23;5.30;;;4.43;;
11344;SDS011;5727;42.600;23.028;2023-04-24T08:19:50;5.00;;;4.13;;
11344;SDS011;5727;42.600;23.028;2023-04-24T08:22:24;5.20;;;4.57;;
11344;SDS011;5727;42.600;23.028;2023-04-24T08:24:51;6.53;;;4.80;;
11344;SDS011;5727;42.600;23.028;2023-04-24T08:27:18;4.83;;;4.10;;
11344;SDS011;5727;42.600;23.028;2023-04-24T08:29:46;6.37;;;4.90;;
11344;SDS011;5727;42.600;23.028;2023-04-24T08:32:13;4.97;;;4.00;;
11344;SDS011;5727;42.600;23.028;2023-04-24T08:34:39;5.10;;;4.00;;
11344;SDS011;5727;42.600;23.028;2023-04-24T08:37:06;4.47;;;3.80;;
11344;SDS011;5727;42.600;23.028;2023-04-24T08:39:33;6.53;;;3.63;;
11344;SDS011;5727;42.600;23.028;2023-04-24T08:42:00;4.97;;;4.07;;
11344;SDS011;5727;42.600;23.028;2023-04-24T08:44:32;8.83;;;4.30;;
11344;SDS011;5727;42.600;23.028;2023-04-24T08:47:01;5.80;;;4.37;;
11344;SDS011;5727;42.600;23.028;2023-04-24T08:49:28;5.53;;;4.20;;
11344;SDS011;5727;42.600;23.028;2023-04-24T08:51:56;7.77;;;4.83;;
11344;SDS011;5727;42.600;23.028;2023-04-24T08:54:24;4.20;;;3.80;;
11344;SDS011;5727;42.600;23.028;2023-04-24T08:56:53;4.47;;;3.60;;
11344;SDS011;5727;42.600;23.028;2023-04-24T08:59:27;4.17;;;3.60;;
11344;SDS011;5727;42.600;23.028;2023-04-24T09:01:54;5.57;;;3.93;;
11344;SDS011;5727;42.600;23.028;2023-04-24T09:04:23;3.80;;;3.50;;
11344;SDS011;5727;42.600;23.028;2023-04-24T09:06:51;4.43;;;3.67;;
11344;SDS011;5727;42.600;23.028;2023-04-24T09:09:21;5.83;;;3.43;;
11344;SDS011;5727;42.600;23.028;2023-04-24T09:11:48;6.13;;;3.73;;
11344;SDS011;5727;42.600;23.028;2023-04-24T09:14:15;8.07;;;3.20;;
11344;SDS011;5727;42.600;23.028;2023-04-24T09:16:43;4.53;;;3.27;;
11344;SDS011;5727;42.600;23.028;2023-04-24T09:19:10;3.27;;;3.00;;
11344;SDS011;5727;42.600;23.028;2023-04-24T09:21:38;5.13;;;3.40;;
11344;SDS011;5727;42.600;23.028;2023-04-24T09:24:07;3.50;;;3.20;;
11344;SDS011;5727;42.600;23.028;2023-04-24T09:26:42;5.33;;;3.20;;
11344;SDS011;5727;42.600;23.028;2023-04-24T09:29:14;3.37;;;3.00;;
11344;SDS011;5727;42.600;23.028;2023-04-24T09:31:42;3.20;;;2.90;;
11344;SDS011;5727;42.600;23.028;2023-04-24T09:34:09;4.60;;;4.00;;
11344;SDS011;5727;42.600;23.028;2023-04-24T09:36:37;5.10;;;3.00;;
11344;SDS011;5727;42.600;23.028;2023-04-24T09:39:08;3.27;;;2.97;;
11344;SDS011;5727;42.600;23.028;2023-04-24T09:41:43;3.60;;;3.23;;
11344;SDS011;5727;42.600;23.028;2023-04-24T09:44:11;3.60;;;2.80;;
11344;SDS011;5727;42.600;23.028;2023-04-24T09:46:40;4.13;;;2.53;;
11344;SDS011;5727;42.600;23.028;2023-04-24T09:49:08;3.70;;;2.83;;
11344;SDS011;5727;42.600;23.028;2023-04-24T09:51:37;4.17;;;3.00;;
11344;SDS011;5727;42.600;23.028;2023-04-24T09:54:11;5.10;;;2.63;;
11344;SDS011;5727;42.600;23.028;2023-04-24T09:56:42;3.33;;;2.87;;
11344;SDS011;5727;42.600;23.028;2023-04-24T09:59:10;3.23;;;2.50;;
11344;SDS011;5727;42.600;23.028;2023-04-24T10:01:37;4.67;;;2.70;;
11344;SDS011;5727;42.600;23.028;2023-04-24T10:04:14;3.30;;;2.80;;
11344;SDS011;5727;42.600;23.028;2023-04-24T10:06:44;3.40;;;2.60;;
11344;SDS011;5727;42.600;23.028;2023-04-24T10:09:12;3.20;;;2.90;;
11344;SDS011;5727;42.600;23.028;2023-04-24T10:11:41;3.23;;;2.80;;
11344;SDS011;5727;42.600;23.028;2023-04-24T10:14:09;8.10;;;4.43;;
11344;SDS011;5727;42.600;23.028;2023-04-24T10:16:37;4.27;;;3.70;;
11344;SDS011;5727;42.600;23.028;2023-04-24T10:19:04;3.50;;;3.20;;
11344;SDS011;5727;42.600;23.028;2023-04-24T10:21:31;3.57;;;3.00;;
11344;SDS011;5727;42.600;23.028;2023-04-24T10:24:00;6.33;;;2.67;;
11344;SDS011;5727;42.600;23.028;2023-04-24T10:26:28;3.90;;;2.17;;
11344;SDS011;5727;42.600;23.028;2023-04-24T10:28:55;4.20;;;2.73;;
11344;SDS011;5727;42.600;23.028;2023-04-24T10:31:24;3.47;;;2.60;;
11344;SDS011;5727;42.600;23.028;2023-04-24T10:33:52;5.33;;;2.70;;
11344;SDS011;5727;42.600;23.028;2023-04-24T10:36:21;2.73;;;2.53;;
11344;SDS011;5727;42.600;23.028;2023-04-24T10:38:51;3.77;;;2.80;;
11344;SDS011;5727;42.600;23.028;2023-04-24T10:41:20;3.80;;;2.63;;
11344;SDS011;5727;42.600;23.028;2023-04-24T10:43:48;3.03;;;2.73;;
11344;SDS011;5727;42.600;23.028;2023-04-24T10:46:30;5.10;;;3.00;;
11344;SDS011;5727;42.600;23.028;2023-04-24T10:48:56;3.80;;;2.93;;
11344;SDS011;5727;42.600;23.028;2023-04-24T10:51:25;2.83;;;2.60;;
11344;SDS011;5727;42.600;23.028;2023-04-24T10:54:21;3.63;;;3.30;;
11344;SDS011;5727;42.600;23.028;2023-04-24T10:56:51;3.73;;;3.03;;
11344;SDS011;5727;42.600;23.028;2023-04-24T10:59:24;6.03;;;2.83;;
11344;SDS011;5727;42.600;23.028;2023-04-24T11:01:52;6.20;;;3.23;;
11344;SDS011;5727;42.600;23.028;2023-04-24T11:04:28;4.47;;;3.23;;
11344;SDS011;5727;42.600;23.028;2023-04-24T11:06:56;3.03;;;2.73;;
11344;SDS011;5727;42.600;23.028;2023-04-24T11:09:26;4.77;;;3.27;;
11344;SDS011;5727;42.600;23.028;2023-04-24T11:12:03;4.63;;;2.90;;
11344;SDS011;5727;42.600;23.028;2023-04-24T11:17:28;4.63;;;3.43;;
11344;SDS011;5727;42.600;23.028;2023-04-24T11:20:00;7.80;;;4.97;;
11344;SDS011;5727;42.600;23.028;2023-04-24T11:22:28;9.20;;;4.80;;
11344;SDS011;5727;42.600;23.028;2023-04-24T11:24:59;3.80;;;3.47;;
11344;SDS011;5727;42.600;23.028;2023-04-24T11:27:31;5.20;;;4.00;;
11344;SDS011;5727;42.600;23.028;2023-04-24T11:29:59;5.43;;;3.97;;
11344;SDS011;5727;42.600;23.028;2023-04-24T11:32:28;4.90;;;4.37;;
11344;SDS011;5727;42.600;23.028;2023-04-24T11:34:56;5.03;;;4.53;;
11344;SDS011;5727;42.600;23.028;2023-04-24T11:37:26;6.90;;;4.77;;
11344;SDS011;5727;42.600;23.028;2023-04-24T11:39:54;4.90;;;3.87;;
11344;SDS011;5727;42.600;23.028;2023-04-24T11:42:22;4.77;;;3.70;;
11344;SDS011;5727;42.600;23.028;2023-04-24T11:44:53;5.07;;;4.37;;
11344;SDS011;5727;42.600;23.028;2023-04-24T11:47:27;7.60;;;5.17;;
11344;SDS011;5727;42.600;23.028;2023-04-24T11:49:54;8.00;;;5.57;;
11344;SDS011;5727;42.600;23.028;2023-04-24T11:52:21;6.90;;;5.57;;
11344;SDS011;5727;42.600;23.028;2023-04-24T11:54:48;6.13;;;5.20;;
11344;SDS011;5727;42.600;23.028;2023-04-24T11:57:16;7.30;;;4.83;;
11344;SDS011;5727;42.600;23.028;2023-04-24T11:59:44;6.33;;;5.20;;
11344;SDS011;5727;42.600;23.028;2023-04-24T12:02:21;8.93;;;7.73;;
11344;SDS011;5727;42.600;23.028;2023-04-24T12:04:48;7.73;;;4.77;;
11344;SDS011;5727;42.600;23.028;2023-04-24T12:07:15;5.17;;;4.67;;
11344;SDS011;5727;42.600;23.028;2023-04-24T12:09:42;6.40;;;4.30;;
11344;SDS011;5727;42.600;23.028;2023-04-24T12:12:10;6.77;;;4.67;;
11344;SDS011;5727;42.600;23.028;2023-04-24T12:14:44;6.87;;;5.13;;
11344;SDS011;5727;42.600;23.028;2023-04-24T12:17:14;5.50;;;4.93;;
11344;SDS011;5727;42.600;23.028;2023-04-24T12:19:46;7.37;;;5.27;;
11344;SDS011;5727;42.600;23.028;2023-04-24T12:22:14;6.20;;;5.00;;
11344;SDS011;5727;42.600;23.028;2023-04-24T12:24:57;5.83;;;5.20;;
11344;SDS011;5727;42.600;23.028;2023-04-24T12:27:25;7.93;;;5.60;;
11344;SDS011;5727;42.600;23.028;2023-04-24T12:29:53;5.47;;;4.97;;
11344;SDS011;5727;42.600;23.028;2023-04-24T12:32:21;6.73;;;4.70;;
11344;SDS011;5727;42.600;23.028;2023-04-24T12:34:50;6.87;;;4.60;;
11344;SDS011;5727;42.600;23.028;2023-04-24T12:37:17;4.80;;;4.23;;
11344;SDS011;5727;42.600;23.028;2023-04-24T12:39:44;5.27;;;4.57;;
11344;SDS011;5727;42.600;23.028;2023-04-24T12:42:25;6.00;;;4.90;;
11344;SDS011;5727;42.600;23.028;2023-04-24T12:44:55;6.67;;;5.50;;
11344;SDS011;5727;42.600;23.028;2023-04-24T12:47:24;8.83;;;6.23;;
11344;SDS011;5727;42.600;23.028;2023-04-24T12:49:54;8.93;;;6.27;;
11344;SDS011;5727;42.600;23.028;2023-04-24T12:52:22;6.97;;;5.00;;
11344;SDS011;5727;42.600;23.028;2023-04-24T12:54:52;7.97;;;5.63;;
11344;SDS011;5727;42.600;23.028;2023-04-24T12:57:19;6.37;;;4.67;;
11344;SDS011;5727;42.600;23.028;2023-04-24T12:59:46;6.00;;;4.27;;
11344;SDS011;5727;42.600;23.028;2023-04-24T13:02:13;5.33;;;4.03;;
11344;SDS011;5727;42.600;23.028;2023-04-24T13:04:42;5.57;;;3.87;;
11344;SDS011;5727;42.600;23.028;2023-04-24T13:07:11;4.77;;;4.00;;
11344;SDS011;5727;42.600;23.028;2023-04-24T13:09:39;5.20;;;4.07;;
11344;SDS011;5727;42.600;23.028;2023-04-24T13:12:06;5.80;;;3.70;;
11344;SDS011;5727;42.600;23.028;2023-04-24T13:14:32;4.47;;;3.87;;
11344;SDS011;5727;42.600;23.028;2023-04-24T13:16:59;4.73;;;3.37;;
11344;SDS011;5727;42.600;23.028;2023-04-24T13:19:26;5.40;;;3.70;;
11344;SDS011;5727;42.600;23.028;2023-04-24T13:21:54;6.03;;;3.37;;
11344;SDS011;5727;42.600;23.028;2023-04-24T13:24:24;7.03;;;3.97;;
11344;SDS011;5727;42.600;23.028;2023-04-24T13:26:51;4.70;;;3.57;;
11344;SDS011;5727;42.600;23.028;2023-04-24T13:29:17;5.43;;;3.53;;
11344;SDS011;5727;42.600;23.028;2023-04-24T13:31:45;4.80;;;3.50;;
11344;SDS011;5727;42.600;23.028;2023-04-24T13:34:13;4.73;;;3.43;;
11344;SDS011;5727;42.600;23.028;2023-04-24T13:36:39;3.90;;;3.23;;
11344;SDS011;5727;42.600;23.028;2023-04-24T13:39:06;3.67;;;2.40;;
11344;SDS011;5727;42.600;23.028;2023-04-24T13:41:34;2.70;;;2.23;;
11344;SDS011;5727;42.600;23.028;2023-04-24T13:44:01;2.90;;;2.03;;
11344;SDS011;5727;42.600;23.028;2023-04-24T13:46:28;4.88;;;2.10;;
11344;SDS011;5727;42.600;23.028;2023-04-24T13:48:55;3.72;;;2.40;;
11344;SDS011;5727;42.600;23.028;2023-04-24T13:51:21;3.35;;;2.22;;
11344;SDS011;5727;42.600;23.028;2023-04-24T13:53:48;3.10;;;1.98;;
11344;SDS011;5727;42.600;23.028;2023-04-24T13:56:15;3.45;;;1.65;;
11344;SDS011;5727;42.600;23.028;2023-04-24T13:58:43;4.68;;;1.85;;
11344;SDS011;5727;42.600;23.028;2023-04-24T14:01:10;4.47;;;2.72;;
11344;SDS011;5727;42.600;23.028;2023-04-24T14:03:37;4.03;;;2.50;;
11344;SDS011;5727;42.600;23.028;2023-04-24T14:06:04;3.55;;;2.22;;
11344;SDS011;5727;42.600;23.028;2023-04-24T14:08:31;5.00;;;2.70;;
11344;SDS011;5727;42.600;23.028;2023-04-24T14:10:58;2.30;;;1.85;;
11344;SDS011;5727;42.600;23.028;2023-04-24T14:13:25;3.58;;;2.42;;
11344;SDS011;5727;42.600;23.028;2023-04-24T14:15:54;3.97;;;1.92;;
11344;SDS011;5727;42.600;23.028;2023-04-24T14:18:20;5.45;;;2.15;;
11344;SDS011;5727;42.600;23.028;2023-04-24T14:20:47;2.65;;;1.55;;
11344;SDS011;5727;42.600;23.028;2023-04-24T14:23:14;3.60;;;1.63;;
11344;SDS011;5727;42.600;23.028;2023-04-24T14:25:41;3.53;;;2.23;;
11344;SDS011;5727;42.600;23.028;2023-04-24T14:28:07;2.47;;;2.03;;
11344;SDS011;5727;42.600;23.028;2023-04-24T14:30:34;5.27;;;2.40;;
11344;SDS011;5727;42.600;23.028;2023-04-24T14:33:03;5.30;;;1.90;;
11344;SDS011;5727;42.600;23.028;2023-04-24T14:35:30;2.67;;;2.10;;
11344;SDS011;5727;42.600;23.028;2023-04-24T14:37:59;3.00;;;1.87;;
11344;SDS011;5727;42.600;23.028;2023-04-24T14:40:26;1.77;;;1.67;;
11344;SDS011;5727;42.600;23.028;2023-04-24T14:42:52;2.27;;;1.40;;
11344;SDS011;5727;42.600;23.028;2023-04-24T14:45:19;2.10;;;1.23;;
11344;SDS011;5727;42.600;23.028;2023-04-24T14:47:46;2.17;;;1.20;;
11344;SDS011;5727;42.600;23.028;2023-04-24T14:50:14;3.30;;;1.80;;
11344;SDS011;5727;42.600;23.028;2023-04-24T14:52:41;3.40;;;2.10;;